BNE weather

Brisbane International Airport
Brisbane, Queensland, Australia

Public forecast

Using degrees Celsius for public forecast. Weather courtesy of forecast.io.

METAR (pilot weather report)

Retrieved 2018/10/18 15:00 UTC (23 minutes ago):

YBBN 181500Z 07006KT 9999 FEW014 20/18 Q1019 NOSIG

TAF (pilot weather forecast)

Retrieved 2018/10/18 12:36 UTC (3 hours ago):

TAF YBBN 181109Z 1812/1918 12006KT 9999 -SHRA SCT015 SCT025 BKN035 FM182200 10010KT 9999 -SHRA SCT025 SCT035 FM190100 06012KT 9999 SCT030 FM191000 10010KT 9999 SCT025